createdAt,value
2022-11-02T00:00:48.896Z,15.95
2022-11-02T00:03:16.800Z,15.92
2022-11-02T00:05:44.723Z,15.92
2022-11-02T00:08:12.592Z,15.95
2022-11-02T00:10:40.487Z,15.99
2022-11-02T00:13:08.379Z,16.06
2022-11-02T00:15:37.638Z,16.10
2022-11-02T00:18:06.775Z,16.15
2022-11-02T00:20:35.140Z,16.24
2022-11-02T00:23:03.279Z,16.26
2022-11-02T00:25:31.399Z,16.29
2022-11-02T00:27:59.324Z,16.31
2022-11-02T00:30:27.187Z,16.31
2022-11-02T00:32:57.087Z,16.30
2022-11-02T00:35:24.977Z,16.30
2022-11-02T00:37:52.829Z,16.26
2022-11-02T00:40:20.852Z,16.25
2022-11-02T00:42:48.844Z,16.22
2022-11-02T00:45:17.306Z,16.21
2022-11-02T00:47:45.175Z,16.20
2022-11-02T00:50:14.466Z,16.19
2022-11-02T00:52:42.557Z,16.20
2022-11-02T00:55:11.342Z,16.23
2022-11-02T00:57:39.856Z,16.24
2022-11-02T01:00:09.992Z,16.18
2022-11-02T01:02:37.981Z,16.28
2022-11-02T01:05:06.984Z,16.29
2022-11-02T01:07:37.557Z,16.32
2022-11-02T01:10:06.103Z,16.33
2022-11-02T01:12:34.019Z,16.37
2022-11-02T01:15:03.407Z,16.41
2022-11-02T01:17:31.319Z,16.48
2022-11-02T01:19:59.327Z,16.52
2022-11-02T01:22:27.211Z,16.52
2022-11-02T01:24:56.608Z,16.50
2022-11-02T01:27:24.480Z,16.48
2022-11-02T01:29:52.372Z,16.49
2022-11-02T01:32:20.293Z,16.51
2022-11-02T01:34:48.154Z,16.54
2022-11-02T01:37:16.089Z,16.47
2022-11-02T01:39:43.951Z,16.41
2022-11-02T01:42:19.923Z,16.31
2022-11-02T01:44:47.832Z,16.27
2022-11-02T01:47:19.535Z,16.18
2022-11-02T01:49:48.961Z,16.09
2022-11-02T01:52:18.276Z,16.02
2022-11-02T01:54:48.746Z,15.91
2022-11-02T01:57:19.050Z,15.85
2022-11-02T01:59:50.935Z,15.81
2022-11-02T02:02:19.747Z,15.78
2022-11-02T02:04:50.464Z,15.77
2022-11-02T02:07:18.374Z,15.72
2022-11-02T02:09:48.760Z,15.66
2022-11-02T02:12:19.289Z,15.58
2022-11-02T02:14:48.552Z,15.47
2022-11-02T02:17:36.159Z,15.37
2022-11-02T02:20:06.432Z,15.30
2022-11-02T02:22:48.219Z,15.26
2022-11-02T02:25:45.699Z,15.19
2022-11-02T02:28:19.732Z,15.22
2022-11-02T02:30:50.182Z,15.24
2022-11-02T02:33:21.539Z,15.27
2022-11-02T02:35:51.239Z,15.30
2022-11-02T02:38:22.298Z,15.35
2022-11-02T02:40:52.318Z,15.37
2022-11-02T02:43:23.193Z,15.40
2022-11-02T02:45:52.466Z,15.44
2022-11-02T02:48:21.248Z,15.42
2022-11-02T02:50:49.939Z,15.41
2022-11-02T02:53:18.507Z,15.41
2022-11-02T02:55:47.443Z,15.41
2022-11-02T02:58:18.260Z,15.25
2022-11-02T03:00:47.475Z,15.28
2022-11-02T03:03:18.541Z,15.15
2022-11-02T03:05:56.583Z,15.01
2022-11-02T03:08:24.440Z,14.90
2022-11-02T03:10:54.637Z,14.79
2022-11-02T03:13:33.857Z,14.76
2022-11-02T03:16:05.577Z,14.72
2022-11-02T03:18:37.385Z,14.72
2022-11-02T03:21:08.207Z,14.74
2022-11-02T03:23:38.383Z,14.75
2022-11-02T03:26:07.786Z,14.76
2022-11-02T03:28:43.511Z,14.84
2022-11-02T03:31:14.534Z,14.85
2022-11-02T03:33:45.099Z,14.87
2022-11-02T03:36:14.187Z,14.89
2022-11-02T03:38:43.947Z,14.94
2022-11-02T03:41:12.075Z,15.00
2022-11-02T03:43:40.135Z,15.02
2022-11-02T03:46:08.601Z,15.04
2022-11-02T03:48:39.848Z,15.05
2022-11-02T03:51:10.129Z,15.04
2022-11-02T03:53:42.582Z,15.03
2022-11-02T03:56:12.968Z,14.96
2022-11-02T03:58:40.809Z,14.91
2022-11-02T04:01:09.322Z,14.86
2022-11-02T04:03:40.082Z,14.84
2022-11-02T04:06:08.339Z,14.75
2022-11-02T04:08:38.055Z,14.69
2022-11-02T04:11:23.859Z,14.68
2022-11-02T04:14:09.336Z,14.65
2022-11-02T04:16:37.230Z,14.63
2022-11-02T04:19:24.241Z,14.62
2022-11-02T04:22:09.637Z,14.59
2022-11-02T04:24:54.700Z,14.56
2022-11-02T04:27:22.615Z,14.52
2022-11-02T04:29:50.501Z,14.50
2022-11-02T04:32:38.929Z,14.44
2022-11-02T04:35:08.583Z,14.37
2022-11-02T04:37:57.519Z,14.29
2022-11-02T04:40:25.435Z,14.21
2022-11-02T04:42:53.408Z,14.19
2022-11-02T04:45:21.274Z,14.18
2022-11-02T04:47:49.170Z,14.13
2022-11-02T04:50:18.423Z,14.10
2022-11-02T04:52:46.310Z,14.05
2022-11-02T04:55:14.192Z,14.01
2022-11-02T04:57:45.964Z,14.00
2022-11-02T05:00:15.547Z,13.96
2022-11-02T05:02:43.614Z,13.89
2022-11-02T05:05:12.556Z,13.88
2022-11-02T05:07:41.823Z,13.86
2022-11-02T05:10:10.004Z,13.84
2022-11-02T05:12:37.898Z,13.83
2022-11-02T05:15:06.515Z,13.87
2022-11-02T05:17:34.447Z,13.89
2022-11-02T05:20:02.472Z,13.87
2022-11-02T05:22:30.376Z,13.91
2022-11-02T05:24:59.634Z,13.91
2022-11-02T05:27:27.518Z,13.93
2022-11-02T05:29:55.393Z,13.93
2022-11-02T05:32:23.285Z,13.91
2022-11-02T05:34:51.224Z,13.93
2022-11-02T05:37:19.108Z,13.94
2022-11-02T05:39:49.524Z,13.94
2022-11-02T05:42:19.837Z,13.94
2022-11-02T05:44:47.655Z,13.94
2022-11-02T05:47:15.580Z,13.95
2022-11-02T05:49:43.442Z,13.96
2022-11-02T05:52:11.569Z,13.96
2022-11-02T05:54:39.475Z,13.98
2022-11-02T05:57:07.403Z,13.98
2022-11-02T05:59:36.656Z,13.96
2022-11-02T06:02:04.611Z,13.98
2022-11-02T06:04:32.516Z,14.00
2022-11-02T06:07:00.399Z,14.01
2022-11-02T06:09:28.295Z,14.01
2022-11-02T06:11:57.180Z,14.01
2022-11-02T06:14:25.051Z,14.02
2022-11-02T06:16:54.382Z,14.02
2022-11-02T06:19:23.406Z,14.00
2022-11-02T06:21:51.281Z,14.02
2022-11-02T06:24:19.370Z,14.00
2022-11-02T06:26:47.267Z,14.01
2022-11-02T06:29:15.191Z,14.02
2022-11-02T06:31:43.143Z,14.02
2022-11-02T06:34:12.471Z,14.02
2022-11-02T06:36:40.395Z,14.02
2022-11-02T06:39:08.312Z,14.05
2022-11-02T06:41:36.261Z,14.08
2022-11-02T06:44:04.203Z,14.09
2022-11-02T06:46:32.387Z,14.11
2022-11-02T06:49:00.411Z,14.12
2022-11-02T06:51:29.853Z,14.16
2022-11-02T06:53:57.832Z,14.20
2022-11-02T06:56:25.812Z,14.22
2022-11-02T06:58:53.716Z,14.23
2022-11-02T07:01:21.702Z,14.21
2022-11-02T07:03:49.751Z,14.21
2022-11-02T07:06:17.668Z,14.21
2022-11-02T07:08:46.950Z,14.21
2022-11-02T07:11:16.323Z,14.23
2022-11-02T07:13:44.305Z,14.26
2022-11-02T07:16:12.460Z,14.26
2022-11-02T07:18:40.423Z,14.28
2022-11-02T07:21:10.573Z,14.32
2022-11-02T07:23:38.545Z,14.38
2022-11-02T07:26:07.911Z,14.40
2022-11-02T07:28:38.126Z,14.43
2022-11-02T07:31:06.551Z,14.46
2022-11-02T07:33:34.448Z,14.47
2022-11-02T07:36:04.072Z,14.50
2022-11-02T07:38:31.950Z,14.54
2022-11-02T07:40:59.804Z,14.57
2022-11-02T07:43:29.135Z,14.62
2022-11-02T07:45:57.299Z,14.68
2022-11-02T07:48:25.165Z,14.75
2022-11-02T07:50:53.439Z,14.83
2022-11-02T07:53:21.323Z,14.89
2022-11-02T07:55:49.201Z,14.96
2022-11-02T07:58:17.160Z,15.03
2022-11-02T08:00:46.412Z,15.09
2022-11-02T08:03:14.873Z,15.14
2022-11-02T08:05:43.256Z,15.19
2022-11-02T08:08:12.924Z,15.20
2022-11-02T08:10:40.853Z,15.21
2022-11-02T08:13:08.871Z,15.24
2022-11-02T08:15:36.837Z,15.29
2022-11-02T08:18:07.218Z,15.33
2022-11-02T08:20:35.858Z,15.39
2022-11-02T08:23:04.039Z,15.47
2022-11-02T08:25:31.987Z,15.53
2022-11-02T08:28:00.051Z,15.60
2022-11-02T08:30:28.129Z,15.67
2022-11-02T08:32:57.204Z,15.77
2022-11-02T08:35:26.762Z,15.84
2022-11-02T08:37:55.643Z,15.87
2022-11-02T08:40:23.705Z,15.99
2022-11-02T08:42:56.328Z,16.07
2022-11-02T08:45:24.291Z,16.16
2022-11-02T08:47:52.163Z,16.22
2022-11-02T08:50:20.075Z,16.29
2022-11-02T08:52:49.308Z,16.35
2022-11-02T08:55:17.198Z,16.43
2022-11-02T08:57:48.185Z,16.48
2022-11-02T09:00:16.636Z,16.55
2022-11-02T09:02:44.778Z,16.60
2022-11-02T09:05:12.714Z,16.63
2022-11-02T09:07:40.647Z,16.71
2022-11-02T09:10:10.963Z,16.77
2022-11-02T09:12:38.814Z,16.81
2022-11-02T09:15:07.607Z,16.86
2022-11-02T09:17:35.553Z,16.92
2022-11-02T09:20:03.434Z,16.93
2022-11-02T09:22:31.813Z,16.96
2022-11-02T09:24:59.642Z,17.02
2022-11-02T09:27:30.178Z,17.08
2022-11-02T09:29:58.099Z,17.13
2022-11-02T09:32:26.127Z,17.22
2022-11-02T09:34:54.145Z,17.30
2022-11-02T09:37:22.021Z,17.42
2022-11-02T09:39:49.927Z,17.52
2022-11-02T09:42:20.100Z,17.59
2022-11-02T09:44:51.164Z,17.67
2022-11-02T09:50:10.826Z,17.87
2022-11-02T09:52:39.331Z,17.93
2022-11-02T09:55:11.739Z,17.97
2022-11-02T09:57:39.786Z,18.02
2022-11-02T10:00:13.587Z,18.04
2022-11-02T10:02:47.952Z,18.10
2022-11-02T10:05:25.426Z,18.10
2022-11-02T10:08:20.773Z,18.13
2022-11-02T10:10:55.190Z,18.15
2022-11-02T10:13:27.457Z,18.19
2022-11-02T10:15:58.077Z,18.23
2022-11-02T10:18:27.613Z,18.23
2022-11-02T10:20:57.201Z,18.28
2022-11-02T10:23:26.873Z,18.32
2022-11-02T10:25:56.713Z,18.36
2022-11-02T10:28:27.154Z,18.39
2022-11-02T10:30:56.996Z,18.39
2022-11-02T10:33:27.277Z,18.42
2022-11-02T10:36:19.513Z,18.50
2022-11-02T10:38:55.220Z,18.59
2022-11-02T10:41:45.801Z,18.64
2022-11-02T10:44:26.024Z,18.70
2022-11-02T10:47:00.691Z,18.79
2022-11-02T10:49:53.308Z,18.90
2022-11-02T10:52:21.201Z,18.98
2022-11-02T10:54:51.032Z,19.07
2022-11-02T10:57:21.687Z,19.13
2022-11-02T11:00:10.660Z,19.14
2022-11-02T11:02:39.952Z,19.18
2022-11-02T11:05:13.421Z,19.18
2022-11-02T11:07:44.446Z,19.18
2022-11-02T11:10:15.293Z,19.21
2022-11-02T11:12:43.295Z,19.22
2022-11-02T11:21:06.686Z,19.34
2022-11-02T11:23:34.695Z,19.33
2022-11-02T11:26:03.218Z,19.33
2022-11-02T11:28:33.418Z,19.32
2022-11-02T11:31:12.461Z,19.26
2022-11-02T11:33:49.632Z,19.20
2022-11-02T11:38:54.711Z,19.11
2022-11-02T11:41:22.645Z,19.18
2022-11-02T11:43:50.574Z,19.29
2022-11-02T11:46:18.505Z,19.49
2022-11-02T11:48:50.139Z,19.66
2022-11-02T11:51:32.705Z,19.91
2022-11-02T11:54:30.732Z,20.04
2022-11-02T11:56:59.207Z,20.12
2022-11-02T11:59:29.336Z,20.23
2022-11-02T12:02:00.783Z,20.32
2022-11-02T12:04:34.463Z,20.35
2022-11-02T12:08:04.915Z,20.34
2022-11-02T12:10:44.298Z,20.40
2022-11-02T12:13:19.894Z,20.39
2022-11-02T12:15:59.728Z,20.33
2022-11-02T12:18:35.002Z,20.39
2022-11-02T12:21:17.653Z,20.41
2022-11-02T12:24:04.261Z,20.52
2022-11-02T12:26:37.824Z,20.51
2022-11-02T12:29:13.155Z,20.44
2022-11-02T12:31:41.784Z,20.34
2022-11-02T12:34:21.176Z,20.24
2022-11-02T12:37:32.692Z,20.18
2022-11-02T12:39:53.453Z,20.08
2022-11-02T12:42:27.190Z,20.05
2022-11-02T12:45:10.733Z,19.99
2022-11-02T12:47:45.413Z,19.92
2022-11-02T12:50:17.143Z,19.93
2022-11-02T12:53:00.271Z,19.93
2022-11-02T12:55:33.046Z,19.96
2022-11-02T12:58:06.653Z,19.98
2022-11-02T13:00:37.564Z,20.01
2022-11-02T13:03:07.505Z,20.05
2022-11-02T13:05:37.201Z,20.03
2022-11-02T13:08:11.256Z,19.93
2022-11-02T13:10:41.795Z,19.81
2022-11-02T13:13:11.948Z,19.72
2022-11-02T13:15:39.809Z,19.61
2022-11-02T13:18:11.485Z,19.50
2022-11-02T13:20:42.035Z,19.42
2022-11-02T13:23:17.078Z,19.21
2022-11-02T13:25:47.961Z,19.23
2022-11-02T13:28:18.001Z,19.02
2022-11-02T13:30:45.852Z,18.85
2022-11-02T13:33:15.527Z,18.74
2022-11-02T13:35:43.546Z,18.65
2022-11-02T13:38:28.926Z,18.59
2022-11-02T13:41:04.344Z,18.53
2022-11-02T13:43:56.899Z,18.53
2022-11-02T13:46:30.979Z,18.53
2022-11-02T13:49:00.573Z,18.59
2022-11-02T13:51:32.529Z,18.61
2022-11-02T13:54:03.048Z,18.65
2022-11-02T13:56:31.046Z,18.67
2022-11-02T13:59:00.939Z,18.65
2022-11-02T14:01:29.515Z,18.63
2022-11-02T14:04:01.995Z,18.57
2022-11-02T14:06:31.558Z,18.43
2022-11-02T14:09:00.366Z,18.39
2022-11-02T14:11:47.507Z,18.33
2022-11-02T14:14:24.589Z,18.25
2022-11-02T14:16:59.089Z,18.19
2022-11-02T14:19:32.218Z,18.13
2022-11-02T14:22:13.845Z,18.09
2022-11-02T14:25:20.234Z,18.12
2022-11-02T14:27:49.547Z,18.04
2022-11-02T14:30:45.616Z,18.12
2022-11-02T14:34:01.191Z,18.05
2022-11-02T14:36:40.932Z,18.06
2022-11-02T14:39:14.807Z,18.00
2022-11-02T14:42:08.831Z,18.04
2022-11-02T14:44:46.646Z,18.04
2022-11-02T14:47:14.831Z,18.09
2022-11-02T14:49:48.588Z,18.12
2022-11-02T14:52:25.366Z,18.11
2022-11-02T14:54:54.667Z,18.12
2022-11-02T14:57:25.441Z,18.11
2022-11-02T14:59:55.372Z,18.00
2022-11-02T15:02:24.387Z,17.93
2022-11-02T15:04:53.092Z,17.84
2022-11-02T15:07:21.731Z,17.77
2022-11-02T15:09:54.328Z,17.74
2022-11-02T15:12:29.433Z,17.72
2022-11-02T15:15:03.097Z,17.70
2022-11-02T15:17:53.502Z,17.70
2022-11-02T15:20:27.470Z,17.70
2022-11-02T15:22:56.232Z,17.69
2022-11-02T15:25:27.094Z,17.71
2022-11-02T15:27:56.888Z,17.74
2022-11-02T15:30:28.521Z,17.75
2022-11-02T15:33:01.924Z,17.77
2022-11-02T15:35:31.928Z,17.77
2022-11-02T15:38:16.938Z,17.78
2022-11-02T15:40:48.387Z,17.81
2022-11-02T15:43:25.190Z,17.80
2022-11-02T15:46:00.366Z,17.80
2022-11-02T15:48:37.872Z,17.81
2022-11-02T15:51:09.348Z,17.78
2022-11-02T15:54:15.903Z,17.79
2022-11-02T15:56:48.118Z,17.75
2022-11-02T15:59:32.780Z,17.72
2022-11-02T16:02:18.788Z,17.71
2022-11-02T16:04:47.220Z,17.70
2022-11-02T16:07:17.394Z,17.67
2022-11-02T16:09:45.970Z,17.69
2022-11-02T16:12:16.755Z,17.71
2022-11-02T16:14:45.101Z,17.72
2022-11-02T16:17:24.699Z,17.73
2022-11-02T16:19:52.716Z,17.70
2022-11-02T16:22:27.386Z,17.70
2022-11-02T16:24:55.373Z,17.73
2022-11-02T16:27:23.547Z,17.72
2022-11-02T16:29:52.429Z,17.74
2022-11-02T16:32:20.339Z,17.76
2022-11-02T16:34:49.568Z,17.79
2022-11-02T16:37:18.800Z,17.76
2022-11-02T16:39:47.717Z,17.73
2022-11-02T16:42:17.934Z,17.76
2022-11-02T16:44:57.248Z,17.76
2022-11-02T16:47:36.481Z,17.73
2022-11-02T16:50:17.764Z,17.67
2022-11-02T16:52:47.903Z,17.55
2022-11-02T16:55:31.381Z,17.57
2022-11-02T16:57:59.501Z,17.53
2022-11-02T17:00:27.494Z,17.43
2022-11-02T17:02:55.421Z,17.36
2022-11-02T17:05:25.564Z,17.31
2022-11-02T17:07:58.562Z,17.27
2022-11-02T17:10:27.487Z,17.28
2022-11-02T17:12:55.389Z,17.27
2022-11-02T17:15:24.068Z,17.28
2022-11-02T17:17:51.972Z,17.30
2022-11-02T17:20:24.838Z,17.25
2022-11-02T17:22:57.135Z,17.22
2022-11-02T17:25:26.159Z,17.17
2022-11-02T17:27:54.769Z,17.11
2022-11-02T17:30:41.659Z,17.00
2022-11-02T17:33:10.170Z,16.90
2022-11-02T17:35:44.015Z,16.85
2022-11-02T17:38:11.910Z,16.85
2022-11-02T17:40:39.799Z,16.78
2022-11-02T17:43:06.693Z,16.74
2022-11-02T17:45:37.344Z,16.68
2022-11-02T17:48:06.242Z,16.69
2022-11-02T17:50:35.184Z,16.66
2022-11-02T17:53:05.101Z,16.66
2022-11-02T17:55:34.059Z,16.65
2022-11-02T17:58:02.038Z,16.67
2022-11-02T18:00:29.947Z,16.70
2022-11-02T18:02:58.875Z,16.75
2022-11-02T18:05:28.323Z,16.75
2022-11-02T18:07:56.524Z,16.77
2022-11-02T18:10:26.683Z,16.75
2022-11-02T18:12:54.612Z,16.73
2022-11-02T18:15:23.919Z,16.76
2022-11-02T18:17:51.752Z,16.79
2022-11-02T18:20:19.950Z,16.83
2022-11-02T18:22:47.867Z,16.88
2022-11-02T18:25:16.768Z,16.90
2022-11-02T18:27:46.101Z,16.91
2022-11-02T18:30:15.267Z,16.91
2022-11-02T18:32:44.071Z,16.96
2022-11-02T18:35:13.632Z,17.00
2022-11-02T18:37:41.620Z,17.03
2022-11-02T18:40:11.475Z,17.06
2022-11-02T18:42:39.503Z,17.09
2022-11-02T18:45:09.617Z,17.11
2022-11-02T18:47:37.892Z,17.12
2022-11-02T18:50:06.259Z,17.14
2022-11-02T18:52:34.166Z,17.13
2022-11-02T18:55:03.824Z,17.10
2022-11-02T18:57:31.716Z,17.11
2022-11-02T18:59:59.684Z,17.08
2022-11-02T19:02:29.271Z,17.07
2022-11-02T19:04:57.498Z,17.06
2022-11-02T19:07:42.879Z,17.05
2022-11-02T19:10:10.955Z,17.03
2022-11-02T19:12:38.864Z,17.00
2022-11-02T19:15:07.599Z,17.00
2022-11-02T19:17:36.967Z,16.99
2022-11-02T19:20:05.577Z,16.98
2022-11-02T19:22:33.447Z,16.96
2022-11-02T19:25:02.357Z,16.95
2022-11-02T19:27:30.238Z,16.95
2022-11-02T19:29:58.193Z,16.96
2022-11-02T19:32:26.113Z,16.94
2022-11-02T19:34:55.439Z,16.99
2022-11-02T19:37:23.303Z,17.00
2022-11-02T19:39:51.173Z,17.00
2022-11-02T19:42:19.064Z,16.99
2022-11-02T19:44:46.958Z,17.01
2022-11-02T19:47:14.907Z,17.01
2022-11-02T19:49:42.792Z,17.03
2022-11-02T19:52:12.150Z,17.04
2022-11-02T19:54:40.065Z,17.07
2022-11-02T19:57:08.018Z,17.10
2022-11-02T19:59:36.175Z,17.10
2022-11-02T20:02:04.099Z,17.12
2022-11-02T20:04:34.598Z,17.16
2022-11-02T20:07:05.982Z,17.11
2022-11-02T20:09:35.256Z,17.20
2022-11-02T20:12:04.891Z,17.23
2022-11-02T20:14:34.132Z,17.26
2022-11-02T20:17:25.281Z,17.29
2022-11-02T20:19:50.091Z,17.30
2022-11-02T20:22:18.770Z,17.33
2022-11-02T20:24:48.061Z,17.30
2022-11-02T20:27:16.040Z,17.30
2022-11-02T20:29:43.941Z,17.29
2022-11-02T20:32:12.603Z,17.29
2022-11-02T20:34:40.619Z,17.29
2022-11-02T20:37:08.492Z,17.28
2022-11-02T20:39:36.406Z,17.27
2022-11-02T20:42:05.902Z,17.26
2022-11-02T20:44:33.750Z,17.25
2022-11-02T20:47:01.637Z,17.24
2022-11-02T20:49:49.245Z,17.23
2022-11-02T20:52:24.547Z,17.23
2022-11-02T20:54:52.424Z,17.23
2022-11-02T20:57:22.467Z,17.23
2022-11-02T20:59:50.549Z,17.23
2022-11-02T21:02:18.486Z,17.22
2022-11-02T21:04:46.467Z,17.14
2022-11-02T21:07:14.442Z,17.21
2022-11-02T21:09:42.295Z,17.21
2022-11-02T21:12:28.551Z,17.21
2022-11-02T21:14:57.806Z,17.19
2022-11-02T21:17:26.125Z,17.17
2022-11-02T21:19:58.162Z,17.14
2022-11-02T21:22:36.025Z,17.14
2022-11-02T21:25:04.311Z,17.13
2022-11-02T21:27:32.204Z,17.10
2022-11-02T21:30:01.596Z,17.09
2022-11-02T21:32:29.578Z,17.05
2022-11-02T21:34:57.688Z,16.99
2022-11-02T21:37:25.637Z,16.99
2022-11-02T21:39:53.539Z,16.98
2022-11-02T21:42:21.431Z,16.96
2022-11-02T21:44:49.508Z,16.96
2022-11-02T21:47:18.841Z,16.93
2022-11-02T21:49:47.061Z,16.92
2022-11-02T21:52:15.012Z,16.95
2022-11-02T21:54:42.920Z,16.95
2022-11-02T21:57:10.769Z,16.98
2022-11-02T21:59:38.636Z,16.99
2022-11-02T22:02:05.617Z,17.00
2022-11-02T22:04:35.016Z,16.99
2022-11-02T22:07:02.898Z,17.01
2022-11-02T22:09:30.789Z,17.01
2022-11-02T22:12:16.177Z,16.98
2022-11-02T22:14:44.855Z,16.99
2022-11-02T22:17:22.004Z,16.99
2022-11-02T22:20:02.302Z,16.96
2022-11-02T22:22:30.314Z,16.96
2022-11-02T22:24:58.209Z,16.96
2022-11-02T22:27:27.707Z,16.94
2022-11-02T22:29:55.669Z,16.94
2022-11-02T22:32:23.551Z,16.97
2022-11-02T22:34:51.488Z,16.96
2022-11-02T22:37:38.698Z,16.96
2022-11-02T22:40:07.378Z,16.94
2022-11-02T22:42:39.709Z,16.94
2022-11-02T22:45:10.992Z,16.93
2022-11-02T22:47:38.835Z,16.93
2022-11-02T22:50:07.886Z,16.92
2022-11-02T22:52:37.240Z,16.94
2022-11-02T22:55:05.565Z,16.92
2022-11-02T22:57:33.459Z,16.90
2022-11-02T23:00:01.360Z,16.91
2022-11-02T23:02:29.385Z,16.89
2022-11-02T23:04:57.315Z,16.85
2022-11-02T23:07:25.186Z,16.83
2022-11-02T23:09:54.420Z,16.82
2022-11-02T23:12:21.289Z,16.83
2022-11-02T23:14:49.174Z,16.84
2022-11-02T23:17:17.035Z,16.85
2022-11-02T23:19:44.901Z,16.83
2022-11-02T23:22:33.095Z,16.85
2022-11-02T23:25:12.574Z,16.84
2022-11-02T23:27:55.768Z,16.85
2022-11-02T23:30:40.783Z,16.84
2022-11-02T23:33:09.051Z,16.83
2022-11-02T23:35:54.382Z,16.85
2022-11-02T23:38:22.241Z,16.85
2022-11-02T23:40:54.458Z,16.88
2022-11-02T23:43:22.346Z,16.89
2022-11-02T23:45:50.212Z,16.91
2022-11-02T23:48:18.137Z,16.93
2022-11-02T23:51:03.659Z,16.93
2022-11-02T23:53:49.066Z,16.93
2022-11-02T23:56:35.818Z,16.88
2022-11-02T23:59:12.643Z,16.81
